sensor_id;sensor_type;location;lat;lon;timestamp;P1;durP1;ratioP1;P2;durP2;ratioP2
74626;SDS011;63132;52.268;5.192;2023-03-13T00:01:34;34.88;;;9.38;;
74626;SDS011;63132;52.268;5.192;2023-03-13T00:04:01;34.22;;;8.20;;
74626;SDS011;63132;52.268;5.192;2023-03-13T00:06:32;35.70;;;7.05;;
74626;SDS011;63132;52.268;5.192;2023-03-13T00:08:59;34.60;;;8.77;;
74626;SDS011;63132;52.268;5.192;2023-03-13T00:11:25;36.85;;;7.88;;
74626;SDS011;63132;52.268;5.192;2023-03-13T00:13:59;38.88;;;7.53;;
74626;SDS011;63132;52.268;5.192;2023-03-13T00:16:26;39.83;;;7.88;;
74626;SDS011;63132;52.268;5.192;2023-03-13T00:18:52;37.53;;;7.25;;
74626;SDS011;63132;52.268;5.192;2023-03-13T00:21:20;28.95;;;6.68;;
74626;SDS011;63132;52.268;5.192;2023-03-13T00:23:47;33.47;;;6.32;;
74626;SDS011;63132;52.268;5.192;2023-03-13T00:26:17;37.70;;;5.97;;
74626;SDS011;63132;52.268;5.192;2023-03-13T00:28:45;24.98;;;6.00;;
74626;SDS011;63132;52.268;5.192;2023-03-13T00:31:14;24.23;;;5.57;;
74626;SDS011;63132;52.268;5.192;2023-03-13T00:33:42;30.15;;;5.90;;
74626;SDS011;63132;52.268;5.192;2023-03-13T00:36:19;30.38;;;6.35;;
74626;SDS011;63132;52.268;5.192;2023-03-13T00:38:49;35.83;;;6.82;;
74626;SDS011;63132;52.268;5.192;2023-03-13T00:41:16;29.85;;;6.40;;
74626;SDS011;63132;52.268;5.192;2023-03-13T00:43:46;33.75;;;8.00;;
74626;SDS011;63132;52.268;5.192;2023-03-13T00:46:14;36.88;;;7.35;;
74626;SDS011;63132;52.268;5.192;2023-03-13T00:48:41;34.92;;;7.68;;
74626;SDS011;63132;52.268;5.192;2023-03-13T00:51:06;26.27;;;6.60;;
74626;SDS011;63132;52.268;5.192;2023-03-13T00:53:35;28.98;;;8.25;;
74626;SDS011;63132;52.268;5.192;2023-03-13T00:56:02;36.20;;;9.02;;
74626;SDS011;63132;52.268;5.192;2023-03-13T00:58:30;26.17;;;8.13;;
74626;SDS011;63132;52.268;5.192;2023-03-13T01:01:05;34.33;;;8.13;;
74626;SDS011;63132;52.268;5.192;2023-03-13T01:03:34;30.47;;;8.00;;
74626;SDS011;63132;52.268;5.192;2023-03-13T01:06:01;30.00;;;7.72;;
74626;SDS011;63132;52.268;5.192;2023-03-13T01:08:28;33.00;;;9.45;;
74626;SDS011;63132;52.268;5.192;2023-03-13T01:13:27;34.47;;;8.55;;
74626;SDS011;63132;52.268;5.192;2023-03-13T01:15:54;32.17;;;9.25;;
74626;SDS011;63132;52.268;5.192;2023-03-13T01:18:19;20.58;;;7.45;;
74626;SDS011;63132;52.268;5.192;2023-03-13T01:20:45;22.13;;;7.47;;
74626;SDS011;63132;52.268;5.192;2023-03-13T01:23:10;29.75;;;9.73;;
74626;SDS011;63132;52.268;5.192;2023-03-13T01:25:36;27.60;;;9.35;;
74626;SDS011;63132;52.268;5.192;2023-03-13T01:28:02;25.83;;;8.55;;
74626;SDS011;63132;52.268;5.192;2023-03-13T01:30:28;22.77;;;7.65;;
74626;SDS011;63132;52.268;5.192;2023-03-13T01:32:54;24.73;;;8.20;;
74626;SDS011;63132;52.268;5.192;2023-03-13T01:35:19;28.30;;;7.97;;
74626;SDS011;63132;52.268;5.192;2023-03-13T01:37:44;24.67;;;8.37;;
74626;SDS011;63132;52.268;5.192;2023-03-13T01:40:10;26.23;;;7.03;;
74626;SDS011;63132;52.268;5.192;2023-03-13T01:42:49;20.20;;;7.55;;
74626;SDS011;63132;52.268;5.192;2023-03-13T01:48:27;17.77;;;7.75;;
74626;SDS011;63132;52.268;5.192;2023-03-13T01:51:06;20.83;;;8.00;;
74626;SDS011;63132;52.268;5.192;2023-03-13T01:53:34;20.52;;;8.88;;
74626;SDS011;63132;52.268;5.192;2023-03-13T01:56:03;22.13;;;8.07;;
74626;SDS011;63132;52.268;5.192;2023-03-13T01:58:32;20.35;;;7.63;;
74626;SDS011;63132;52.268;5.192;2023-03-13T02:00:57;14.63;;;8.18;;
74626;SDS011;63132;52.268;5.192;2023-03-13T02:03:24;23.55;;;8.80;;
74626;SDS011;63132;52.268;5.192;2023-03-13T02:05:52;22.98;;;9.45;;
74626;SDS011;63132;52.268;5.192;2023-03-13T02:08:18;19.58;;;9.45;;
74626;SDS011;63132;52.268;5.192;2023-03-13T02:11:05;24.00;;;10.55;;
74626;SDS011;63132;52.268;5.192;2023-03-13T02:13:36;25.52;;;11.50;;
74626;SDS011;63132;52.268;5.192;2023-03-13T02:16:02;28.17;;;10.73;;
74626;SDS011;63132;52.268;5.192;2023-03-13T02:18:27;25.23;;;11.88;;
74626;SDS011;63132;52.268;5.192;2023-03-13T02:20:54;23.42;;;12.18;;
74626;SDS011;63132;52.268;5.192;2023-03-13T02:23:30;23.23;;;11.73;;
74626;SDS011;63132;52.268;5.192;2023-03-13T02:26:14;26.27;;;13.18;;
74626;SDS011;63132;52.268;5.192;2023-03-13T02:28:40;27.42;;;13.68;;
74626;SDS011;63132;52.268;5.192;2023-03-13T02:31:05;27.45;;;15.75;;
74626;SDS011;63132;52.268;5.192;2023-03-13T02:33:40;29.80;;;13.68;;
74626;SDS011;63132;52.268;5.192;2023-03-13T02:36:10;30.10;;;14.57;;
74626;SDS011;63132;52.268;5.192;2023-03-13T02:38:44;27.80;;;15.35;;
74626;SDS011;63132;52.268;5.192;2023-03-13T02:41:17;32.17;;;16.65;;
74626;SDS011;63132;52.268;5.192;2023-03-13T02:43:44;32.08;;;16.40;;
74626;SDS011;63132;52.268;5.192;2023-03-13T02:48:39;30.70;;;17.73;;
74626;SDS011;63132;52.268;5.192;2023-03-13T02:51:28;34.22;;;17.50;;
74626;SDS011;63132;52.268;5.192;2023-03-13T02:53:54;34.35;;;18.30;;
74626;SDS011;63132;52.268;5.192;2023-03-13T02:56:23;30.50;;;17.50;;
74626;SDS011;63132;52.268;5.192;2023-03-13T02:58:49;31.00;;;17.63;;
74626;SDS011;63132;52.268;5.192;2023-03-13T03:01:15;28.55;;;17.92;;
74626;SDS011;63132;52.268;5.192;2023-03-13T03:03:40;37.88;;;18.50;;
74626;SDS011;63132;52.268;5.192;2023-03-13T03:06:06;37.08;;;17.90;;
74626;SDS011;63132;52.268;5.192;2023-03-13T03:08:32;35.58;;;17.90;;
74626;SDS011;63132;52.268;5.192;2023-03-13T03:10:58;32.35;;;16.17;;
74626;SDS011;63132;52.268;5.192;2023-03-13T03:13:24;35.20;;;17.50;;
74626;SDS011;63132;52.268;5.192;2023-03-13T03:15:49;29.45;;;15.52;;
74626;SDS011;63132;52.268;5.192;2023-03-13T03:18:15;28.45;;;15.57;;
74626;SDS011;63132;52.268;5.192;2023-03-13T03:20:40;30.70;;;16.08;;
74626;SDS011;63132;52.268;5.192;2023-03-13T03:23:05;34.08;;;16.00;;
74626;SDS011;63132;52.268;5.192;2023-03-13T03:25:31;35.53;;;16.38;;
74626;SDS011;63132;52.268;5.192;2023-03-13T03:27:56;25.73;;;14.07;;
74626;SDS011;63132;52.268;5.192;2023-03-13T03:30:21;28.05;;;15.02;;
74626;SDS011;63132;52.268;5.192;2023-03-13T03:32:47;30.13;;;15.48;;
74626;SDS011;63132;52.268;5.192;2023-03-13T03:35:12;29.33;;;15.63;;
74626;SDS011;63132;52.268;5.192;2023-03-13T03:37:38;34.67;;;14.95;;
74626;SDS011;63132;52.268;5.192;2023-03-13T03:40:03;22.65;;;12.90;;
74626;SDS011;63132;52.268;5.192;2023-03-13T03:42:32;25.13;;;13.98;;
74626;SDS011;63132;52.268;5.192;2023-03-13T03:44:58;27.80;;;14.60;;
74626;SDS011;63132;52.268;5.192;2023-03-13T03:47:23;32.47;;;13.93;;
74626;SDS011;63132;52.268;5.192;2023-03-13T03:49:49;23.67;;;13.38;;
74626;SDS011;63132;52.268;5.192;2023-03-13T03:52:14;30.85;;;13.82;;
74626;SDS011;63132;52.268;5.192;2023-03-13T03:54:40;22.02;;;11.80;;
74626;SDS011;63132;52.268;5.192;2023-03-13T03:57:05;22.03;;;11.87;;
74626;SDS011;63132;52.268;5.192;2023-03-13T03:59:33;26.08;;;11.90;;
74626;SDS011;63132;52.268;5.192;2023-03-13T04:02:07;24.27;;;12.68;;
74626;SDS011;63132;52.268;5.192;2023-03-13T04:04:33;29.75;;;11.00;;
74626;SDS011;63132;52.268;5.192;2023-03-13T04:09:23;20.40;;;11.30;;
74626;SDS011;63132;52.268;5.192;2023-03-13T04:11:49;22.73;;;10.90;;
74626;SDS011;63132;52.268;5.192;2023-03-13T04:14:14;22.23;;;10.65;;
74626;SDS011;63132;52.268;5.192;2023-03-13T04:16:39;22.15;;;11.15;;
74626;SDS011;63132;52.268;5.192;2023-03-13T04:21:31;18.88;;;10.30;;
74626;SDS011;63132;52.268;5.192;2023-03-13T04:23:57;21.27;;;9.65;;
74626;SDS011;63132;52.268;5.192;2023-03-13T04:26:22;20.30;;;10.07;;
74626;SDS011;63132;52.268;5.192;2023-03-13T04:28:48;17.33;;;9.10;;
74626;SDS011;63132;52.268;5.192;2023-03-13T04:33:38;17.95;;;8.77;;
74626;SDS011;63132;52.268;5.192;2023-03-13T04:36:04;19.70;;;9.10;;
74626;SDS011;63132;52.268;5.192;2023-03-13T04:40:55;24.08;;;9.93;;
74626;SDS011;63132;52.268;5.192;2023-03-13T04:45:45;16.08;;;8.80;;
74626;SDS011;63132;52.268;5.192;2023-03-13T04:48:11;21.58;;;9.52;;
74626;SDS011;63132;52.268;5.192;2023-03-13T04:53:02;18.40;;;9.88;;
74626;SDS011;63132;52.268;5.192;2023-03-13T04:55:28;20.00;;;8.73;;
74626;SDS011;63132;52.268;5.192;2023-03-13T04:57:53;15.98;;;8.88;;
74626;SDS011;63132;52.268;5.192;2023-03-13T05:00:18;16.92;;;9.35;;
74626;SDS011;63132;52.268;5.192;2023-03-13T05:02:44;22.25;;;9.57;;
74626;SDS011;63132;52.268;5.192;2023-03-13T05:05:09;15.90;;;9.57;;
74626;SDS011;63132;52.268;5.192;2023-03-13T05:10:00;16.50;;;8.88;;
74626;SDS011;63132;52.268;5.192;2023-03-13T05:12:25;17.85;;;9.00;;
74626;SDS011;63132;52.268;5.192;2023-03-13T05:14:51;26.83;;;9.60;;
74626;SDS011;63132;52.268;5.192;2023-03-13T05:17:17;16.48;;;8.98;;
74626;SDS011;63132;52.268;5.192;2023-03-13T05:19:43;23.60;;;9.55;;
74626;SDS011;63132;52.268;5.192;2023-03-13T05:22:08;21.42;;;8.30;;
74626;SDS011;63132;52.268;5.192;2023-03-13T05:26:59;20.27;;;9.75;;
74626;SDS011;63132;52.268;5.192;2023-03-13T05:29:24;20.05;;;9.15;;
74626;SDS011;63132;52.268;5.192;2023-03-13T05:31:50;24.80;;;8.82;;
74626;SDS011;63132;52.268;5.192;2023-03-13T05:34:15;19.98;;;8.65;;
74626;SDS011;63132;52.268;5.192;2023-03-13T05:36:40;18.35;;;9.30;;
74626;SDS011;63132;52.268;5.192;2023-03-13T05:39:06;21.80;;;8.40;;
74626;SDS011;63132;52.268;5.192;2023-03-13T05:41:34;22.38;;;7.55;;
74626;SDS011;63132;52.268;5.192;2023-03-13T05:44:06;15.95;;;7.07;;
74626;SDS011;63132;52.268;5.192;2023-03-13T05:46:31;18.98;;;7.85;;
74626;SDS011;63132;52.268;5.192;2023-03-13T05:48:57;17.65;;;6.28;;
74626;SDS011;63132;52.268;5.192;2023-03-13T05:51:23;20.00;;;7.40;;
74626;SDS011;63132;52.268;5.192;2023-03-13T05:53:48;14.50;;;6.00;;
74626;SDS011;63132;52.268;5.192;2023-03-13T05:56:14;17.55;;;6.03;;
74626;SDS011;63132;52.268;5.192;2023-03-13T05:58:39;17.13;;;5.65;;
74626;SDS011;63132;52.268;5.192;2023-03-13T06:01:05;17.95;;;6.57;;
74626;SDS011;63132;52.268;5.192;2023-03-13T06:03:32;15.75;;;5.80;;
74626;SDS011;63132;52.268;5.192;2023-03-13T06:05:58;18.30;;;6.07;;
74626;SDS011;63132;52.268;5.192;2023-03-13T06:08:23;14.10;;;5.05;;
74626;SDS011;63132;52.268;5.192;2023-03-13T06:13:14;19.70;;;5.20;;
74626;SDS011;63132;52.268;5.192;2023-03-13T06:15:39;13.80;;;4.80;;
74626;SDS011;63132;52.268;5.192;2023-03-13T06:18:05;12.90;;;4.97;;
74626;SDS011;63132;52.268;5.192;2023-03-13T06:22:55;10.55;;;4.00;;
74626;SDS011;63132;52.268;5.192;2023-03-13T06:27:49;12.73;;;4.85;;
74626;SDS011;63132;52.268;5.192;2023-03-13T06:30:15;14.75;;;4.68;;
74626;SDS011;63132;52.268;5.192;2023-03-13T06:32:40;10.35;;;4.28;;
74626;SDS011;63132;52.268;5.192;2023-03-13T06:35:06;17.65;;;4.70;;
74626;SDS011;63132;52.268;5.192;2023-03-13T06:39:57;16.58;;;4.43;;
74626;SDS011;63132;52.268;5.192;2023-03-13T06:44:48;15.27;;;4.63;;
74626;SDS011;63132;52.268;5.192;2023-03-13T06:47:16;12.40;;;4.68;;
74626;SDS011;63132;52.268;5.192;2023-03-13T06:49:41;22.20;;;4.68;;
74626;SDS011;63132;52.268;5.192;2023-03-13T06:52:07;13.18;;;5.72;;
74626;SDS011;63132;52.268;5.192;2023-03-13T06:56:58;20.73;;;5.72;;
74626;SDS011;63132;52.268;5.192;2023-03-13T06:59:23;16.77;;;4.80;;
74626;SDS011;63132;52.268;5.192;2023-03-13T07:01:49;20.45;;;6.40;;
74626;SDS011;63132;52.268;5.192;2023-03-13T07:04:14;15.98;;;5.38;;
74626;SDS011;63132;52.268;5.192;2023-03-13T07:06:40;12.57;;;5.45;;
74626;SDS011;63132;52.268;5.192;2023-03-13T07:09:05;27.58;;;6.97;;
74626;SDS011;63132;52.268;5.192;2023-03-13T07:11:31;17.13;;;5.72;;
74626;SDS011;63132;52.268;5.192;2023-03-13T07:13:56;12.82;;;6.00;;
74626;SDS011;63132;52.268;5.192;2023-03-13T07:16:30;12.98;;;6.25;;
74626;SDS011;63132;52.268;5.192;2023-03-13T07:18:56;11.52;;;5.93;;
74626;SDS011;63132;52.268;5.192;2023-03-13T07:21:21;17.50;;;7.10;;
74626;SDS011;63132;52.268;5.192;2023-03-13T07:23:47;17.63;;;5.93;;
74626;SDS011;63132;52.268;5.192;2023-03-13T07:26:13;17.48;;;6.55;;
74626;SDS011;63132;52.268;5.192;2023-03-13T07:28:40;14.07;;;6.35;;
74626;SDS011;63132;52.268;5.192;2023-03-13T07:31:07;17.70;;;6.97;;
74626;SDS011;63132;52.268;5.192;2023-03-13T07:33:40;18.33;;;6.90;;
74626;SDS011;63132;52.268;5.192;2023-03-13T07:36:06;17.63;;;6.22;;
74626;SDS011;63132;52.268;5.192;2023-03-13T07:38:32;12.68;;;6.53;;
74626;SDS011;63132;52.268;5.192;2023-03-13T07:43:23;17.55;;;6.75;;
74626;SDS011;63132;52.268;5.192;2023-03-13T07:45:59;23.02;;;7.28;;
74626;SDS011;63132;52.268;5.192;2023-03-13T07:48:35;15.40;;;6.60;;
74626;SDS011;63132;52.268;5.192;2023-03-13T07:51:06;20.60;;;6.75;;
74626;SDS011;63132;52.268;5.192;2023-03-13T07:53:34;16.90;;;7.05;;
74626;SDS011;63132;52.268;5.192;2023-03-13T07:56:04;16.33;;;6.30;;
74626;SDS011;63132;52.268;5.192;2023-03-13T07:58:40;15.40;;;6.60;;
74626;SDS011;63132;52.268;5.192;2023-03-13T08:01:07;15.35;;;6.18;;
74626;SDS011;63132;52.268;5.192;2023-03-13T08:03:34;18.77;;;5.82;;
74626;SDS011;63132;52.268;5.192;2023-03-13T08:06:01;16.00;;;6.97;;
74626;SDS011;63132;52.268;5.192;2023-03-13T08:08:32;18.38;;;6.22;;
74626;SDS011;63132;52.268;5.192;2023-03-13T08:10:58;17.00;;;6.18;;
74626;SDS011;63132;52.268;5.192;2023-03-13T08:13:25;18.85;;;6.40;;
74626;SDS011;63132;52.268;5.192;2023-03-13T08:15:50;15.27;;;5.50;;
74626;SDS011;63132;52.268;5.192;2023-03-13T08:20:41;13.15;;;5.15;;
74626;SDS011;63132;52.268;5.192;2023-03-13T08:23:06;16.63;;;5.85;;
74626;SDS011;63132;52.268;5.192;2023-03-13T08:27:57;17.27;;;4.38;;
74626;SDS011;63132;52.268;5.192;2023-03-13T08:30:23;15.27;;;4.18;;
74626;SDS011;63132;52.268;5.192;2023-03-13T08:35:13;11.77;;;4.78;;
74626;SDS011;63132;52.268;5.192;2023-03-13T08:40:19;15.25;;;4.15;;
74626;SDS011;63132;52.268;5.192;2023-03-13T08:42:57;12.13;;;3.67;;
74626;SDS011;63132;52.268;5.192;2023-03-13T08:45:22;14.90;;;3.80;;
74626;SDS011;63132;52.268;5.192;2023-03-13T08:47:50;12.68;;;3.90;;
74626;SDS011;63132;52.268;5.192;2023-03-13T08:50:17;15.07;;;3.95;;
74626;SDS011;63132;52.268;5.192;2023-03-13T08:52:43;11.43;;;3.58;;
74626;SDS011;63132;52.268;5.192;2023-03-13T08:55:09;11.68;;;4.53;;
74626;SDS011;63132;52.268;5.192;2023-03-13T08:57:37;8.05;;;3.20;;
74626;SDS011;63132;52.268;5.192;2023-03-13T09:00:03;12.63;;;4.50;;
74626;SDS011;63132;52.268;5.192;2023-03-13T09:02:30;14.30;;;4.18;;
74626;SDS011;63132;52.268;5.192;2023-03-13T09:04:56;15.80;;;4.35;;
74626;SDS011;63132;52.268;5.192;2023-03-13T09:07:21;10.98;;;3.28;;
74626;SDS011;63132;52.268;5.192;2023-03-13T09:09:48;11.43;;;3.40;;
74626;SDS011;63132;52.268;5.192;2023-03-13T09:14:38;11.50;;;2.55;;
74626;SDS011;63132;52.268;5.192;2023-03-13T09:19:29;13.38;;;2.97;;
74626;SDS011;63132;52.268;5.192;2023-03-13T09:24:21;10.18;;;2.38;;
74626;SDS011;63132;52.268;5.192;2023-03-13T09:26:46;7.00;;;2.30;;
74626;SDS011;63132;52.268;5.192;2023-03-13T09:29:15;10.43;;;2.63;;
74626;SDS011;63132;52.268;5.192;2023-03-13T09:34:06;17.83;;;4.10;;
74626;SDS011;63132;52.268;5.192;2023-03-13T09:39:02;13.55;;;2.83;;
74626;SDS011;63132;52.268;5.192;2023-03-13T09:42:30;11.90;;;3.05;;
74626;SDS011;63132;52.268;5.192;2023-03-13T09:44:58;12.20;;;2.45;;
74626;SDS011;63132;52.268;5.192;2023-03-13T09:47:41;9.57;;;2.80;;
74626;SDS011;63132;52.268;5.192;2023-03-13T09:53:33;14.00;;;2.55;;
74626;SDS011;63132;52.268;5.192;2023-03-13T09:56:08;11.47;;;2.07;;
74626;SDS011;63132;52.268;5.192;2023-03-13T09:59:00;16.50;;;2.60;;
74626;SDS011;63132;52.268;5.192;2023-03-13T10:01:50;12.52;;;2.85;;
74626;SDS011;63132;52.268;5.192;2023-03-13T10:04:30;8.43;;;2.20;;
74626;SDS011;63132;52.268;5.192;2023-03-13T10:07:02;8.82;;;1.98;;
74626;SDS011;63132;52.268;5.192;2023-03-13T10:09:37;11.77;;;2.88;;
74626;SDS011;63132;52.268;5.192;2023-03-13T10:17:44;8.18;;;1.70;;
74626;SDS011;63132;52.268;5.192;2023-03-13T10:23:38;7.82;;;1.55;;
74626;SDS011;63132;52.268;5.192;2023-03-13T10:25:56;8.60;;;1.50;;
74626;SDS011;63132;52.268;5.192;2023-03-13T10:30:48;7.50;;;2.00;;
74626;SDS011;63132;52.268;5.192;2023-03-13T10:35:43;4.88;;;1.38;;
74626;SDS011;63132;52.268;5.192;2023-03-13T10:40:36;9.93;;;1.87;;
74626;SDS011;63132;52.268;5.192;2023-03-13T10:43:06;6.75;;;1.80;;
74626;SDS011;63132;52.268;5.192;2023-03-13T10:45:38;5.38;;;1.85;;
74626;SDS011;63132;52.268;5.192;2023-03-13T10:51:00;10.02;;;1.58;;
74626;SDS011;63132;52.268;5.192;2023-03-13T11:02:20;11.52;;;2.25;;
74626;SDS011;63132;52.268;5.192;2023-03-13T11:05:40;5.00;;;1.70;;
74626;SDS011;63132;52.268;5.192;2023-03-13T11:08:35;9.48;;;1.75;;
74626;SDS011;63132;52.268;5.192;2023-03-13T11:11:02;6.30;;;1.70;;
74626;SDS011;63132;52.268;5.192;2023-03-13T11:16:10;7.93;;;1.52;;
74626;SDS011;63132;52.268;5.192;2023-03-13T11:18:46;6.65;;;1.80;;
74626;SDS011;63132;52.268;5.192;2023-03-13T11:21:36;8.27;;;2.15;;
74626;SDS011;63132;52.268;5.192;2023-03-13T11:24:09;6.20;;;1.75;;
74626;SDS011;63132;52.268;5.192;2023-03-13T11:26:50;8.73;;;2.10;;
74626;SDS011;63132;52.268;5.192;2023-03-13T11:29:36;9.50;;;2.27;;
74626;SDS011;63132;52.268;5.192;2023-03-13T11:38:47;7.50;;;1.88;;
74626;SDS011;63132;52.268;5.192;2023-03-13T11:41:29;9.05;;;2.17;;
74626;SDS011;63132;52.268;5.192;2023-03-13T11:44:26;8.65;;;1.88;;
74626;SDS011;63132;52.268;5.192;2023-03-13T11:47:24;6.50;;;1.75;;
74626;SDS011;63132;52.268;5.192;2023-03-13T11:50:04;7.70;;;2.03;;
74626;SDS011;63132;52.268;5.192;2023-03-13T11:52:47;12.95;;;3.50;;
74626;SDS011;63132;52.268;5.192;2023-03-13T12:08:56;16.02;;;3.40;;
74626;SDS011;63132;52.268;5.192;2023-03-13T12:11:31;7.97;;;1.97;;
74626;SDS011;63132;52.268;5.192;2023-03-13T12:14:03;16.25;;;3.35;;
74626;SDS011;63132;52.268;5.192;2023-03-13T12:19:46;9.40;;;2.72;;
74626;SDS011;63132;52.268;5.192;2023-03-13T12:25:37;14.82;;;2.60;;
74626;SDS011;63132;52.268;5.192;2023-03-13T12:28:40;16.67;;;3.00;;
74626;SDS011;63132;52.268;5.192;2023-03-13T12:34:03;16.80;;;2.58;;
74626;SDS011;63132;52.268;5.192;2023-03-13T12:36:40;14.85;;;2.67;;
74626;SDS011;63132;52.268;5.192;2023-03-13T12:42:04;18.40;;;3.72;;
74626;SDS011;63132;52.268;5.192;2023-03-13T12:44:47;15.95;;;3.35;;
74626;SDS011;63132;52.268;5.192;2023-03-13T13:01:35;20.15;;;3.35;;
74626;SDS011;63132;52.268;5.192;2023-03-13T13:04:27;16.27;;;4.10;;
74626;SDS011;63132;52.268;5.192;2023-03-13T13:13:35;13.50;;;3.20;;
74626;SDS011;63132;52.268;5.192;2023-03-13T13:28:43;22.20;;;4.07;;
74626;SDS011;63132;52.268;5.192;2023-03-13T13:36:52;26.65;;;4.20;;
74626;SDS011;63132;52.268;5.192;2023-03-13T13:45:56;26.05;;;4.80;;
74626;SDS011;63132;52.268;5.192;2023-03-13T13:59:22;20.88;;;3.75;;
74626;SDS011;63132;52.268;5.192;2023-03-13T14:01:49;16.25;;;3.63;;
74626;SDS011;63132;52.268;5.192;2023-03-13T14:04:40;16.37;;;3.57;;
74626;SDS011;63132;52.268;5.192;2023-03-13T14:07:56;22.02;;;3.53;;
74626;SDS011;63132;52.268;5.192;2023-03-13T14:15:20;23.73;;;4.80;;
74626;SDS011;63132;52.268;5.192;2023-03-13T14:17:48;21.60;;;4.15;;
74626;SDS011;63132;52.268;5.192;2023-03-13T14:22:53;18.33;;;4.07;;
74626;SDS011;63132;52.268;5.192;2023-03-13T14:28:18;29.45;;;4.22;;
74626;SDS011;63132;52.268;5.192;2023-03-13T14:30:49;23.83;;;5.65;;
74626;SDS011;63132;52.268;5.192;2023-03-13T14:33:16;20.42;;;4.63;;
74626;SDS011;63132;52.268;5.192;2023-03-13T14:35:42;25.98;;;5.13;;
74626;SDS011;63132;52.268;5.192;2023-03-13T14:40:41;25.63;;;5.55;;
74626;SDS011;63132;52.268;5.192;2023-03-13T14:45:51;33.40;;;5.57;;
74626;SDS011;63132;52.268;5.192;2023-03-13T14:50:42;24.58;;;4.45;;
74626;SDS011;63132;52.268;5.192;2023-03-13T14:55:38;21.67;;;4.40;;
74626;SDS011;63132;52.268;5.192;2023-03-13T15:00:50;24.15;;;5.53;;
74626;SDS011;63132;52.268;5.192;2023-03-13T15:05:44;25.48;;;4.85;;
74626;SDS011;63132;52.268;5.192;2023-03-13T15:08:12;27.60;;;4.43;;
74626;SDS011;63132;52.268;5.192;2023-03-13T15:10:39;28.73;;;5.22;;
74626;SDS011;63132;52.268;5.192;2023-03-13T15:15:49;21.10;;;4.78;;
74626;SDS011;63132;52.268;5.192;2023-03-13T15:18:22;26.65;;;4.38;;
74626;SDS011;63132;52.268;5.192;2023-03-13T15:20:52;25.88;;;4.32;;
74626;SDS011;63132;52.268;5.192;2023-03-13T15:23:18;24.02;;;4.90;;
74626;SDS011;63132;52.268;5.192;2023-03-13T15:25:45;27.30;;;4.90;;
74626;SDS011;63132;52.268;5.192;2023-03-13T15:28:15;23.25;;;4.97;;
74626;SDS011;63132;52.268;5.192;2023-03-13T15:30:46;24.58;;;4.13;;
74626;SDS011;63132;52.268;5.192;2023-03-13T15:33:16;27.95;;;4.05;;
74626;SDS011;63132;52.268;5.192;2023-03-13T15:35:44;20.33;;;4.43;;
74626;SDS011;63132;52.268;5.192;2023-03-13T15:38:12;26.20;;;5.13;;
74626;SDS011;63132;52.268;5.192;2023-03-13T15:40:43;25.02;;;4.30;;
74626;SDS011;63132;52.268;5.192;2023-03-13T15:43:09;28.08;;;4.90;;
74626;SDS011;63132;52.268;5.192;2023-03-13T15:45:36;20.75;;;6.15;;
74626;SDS011;63132;52.268;5.192;2023-03-13T15:48:11;31.17;;;5.05;;
74626;SDS011;63132;52.268;5.192;2023-03-13T15:50:40;27.08;;;3.97;;
74626;SDS011;63132;52.268;5.192;2023-03-13T15:53:16;19.42;;;4.38;;
74626;SDS011;63132;52.268;5.192;2023-03-13T15:55:48;29.35;;;4.63;;
74626;SDS011;63132;52.268;5.192;2023-03-13T15:58:14;28.33;;;4.65;;
74626;SDS011;63132;52.268;5.192;2023-03-13T16:03:08;24.55;;;4.35;;
74626;SDS011;63132;52.268;5.192;2023-03-13T16:05:49;22.33;;;4.72;;
74626;SDS011;63132;52.268;5.192;2023-03-13T16:10:41;22.52;;;5.50;;
74626;SDS011;63132;52.268;5.192;2023-03-13T16:15:35;31.83;;;4.95;;
74626;SDS011;63132;52.268;5.192;2023-03-13T16:20:25;26.70;;;4.60;;
74626;SDS011;63132;52.268;5.192;2023-03-13T16:22:52;29.58;;;4.97;;
74626;SDS011;63132;52.268;5.192;2023-03-13T16:27:44;28.83;;;4.25;;
74626;SDS011;63132;52.268;5.192;2023-03-13T16:32:38;26.15;;;4.50;;
74626;SDS011;63132;52.268;5.192;2023-03-13T16:37:29;28.33;;;4.20;;
74626;SDS011;63132;52.268;5.192;2023-03-13T16:42:20;31.15;;;5.90;;
74626;SDS011;63132;52.268;5.192;2023-03-13T16:47:24;24.60;;;5.45;;
74626;SDS011;63132;52.268;5.192;2023-03-13T16:49:52;28.02;;;5.32;;
74626;SDS011;63132;52.268;5.192;2023-03-13T16:54:44;25.65;;;3.88;;
74626;SDS011;63132;52.268;5.192;2023-03-13T16:57:14;33.13;;;6.50;;
74626;SDS011;63132;52.268;5.192;2023-03-13T16:59:41;26.38;;;5.50;;
74626;SDS011;63132;52.268;5.192;2023-03-13T17:04:39;30.75;;;5.53;;
74626;SDS011;63132;52.268;5.192;2023-03-13T17:09:37;22.17;;;4.85;;
74626;SDS011;63132;52.268;5.192;2023-03-13T17:12:05;30.65;;;4.60;;
74626;SDS011;63132;52.268;5.192;2023-03-13T17:14:30;27.25;;;4.53;;
74626;SDS011;63132;52.268;5.192;2023-03-13T17:19:21;19.35;;;4.47;;
74626;SDS011;63132;52.268;5.192;2023-03-13T17:21:46;32.78;;;5.30;;
74626;SDS011;63132;52.268;5.192;2023-03-13T17:24:13;28.88;;;5.07;;
74626;SDS011;63132;52.268;5.192;2023-03-13T17:26:38;29.85;;;5.25;;
74626;SDS011;63132;52.268;5.192;2023-03-13T17:29:04;30.40;;;5.75;;
74626;SDS011;63132;52.268;5.192;2023-03-13T17:31:31;28.17;;;4.63;;
74626;SDS011;63132;52.268;5.192;2023-03-13T17:34:02;33.75;;;5.13;;
74626;SDS011;63132;52.268;5.192;2023-03-13T17:36:28;34.30;;;5.10;;
74626;SDS011;63132;52.268;5.192;2023-03-13T17:38:54;22.20;;;5.03;;
74626;SDS011;63132;52.268;5.192;2023-03-13T17:41:22;40.05;;;5.55;;
74626;SDS011;63132;52.268;5.192;2023-03-13T17:43:51;27.15;;;5.40;;
74626;SDS011;63132;52.268;5.192;2023-03-13T17:46:22;27.30;;;5.13;;
74626;SDS011;63132;52.268;5.192;2023-03-13T17:48:50;25.52;;;4.32;;
74626;SDS011;63132;52.268;5.192;2023-03-13T17:51:20;22.67;;;4.38;;
74626;SDS011;63132;52.268;5.192;2023-03-13T17:53:50;23.63;;;4.50;;
74626;SDS011;63132;52.268;5.192;2023-03-13T17:56:24;32.78;;;5.43;;
74626;SDS011;63132;52.268;5.192;2023-03-13T17:58:50;31.48;;;4.95;;
74626;SDS011;63132;52.268;5.192;2023-03-13T18:01:19;33.47;;;4.85;;
74626;SDS011;63132;52.268;5.192;2023-03-13T18:03:46;35.20;;;4.93;;
74626;SDS011;63132;52.268;5.192;2023-03-13T18:08:47;25.55;;;5.63;;
74626;SDS011;63132;52.268;5.192;2023-03-13T18:11:13;32.10;;;5.15;;
74626;SDS011;63132;52.268;5.192;2023-03-13T18:13:40;31.05;;;5.32;;
74626;SDS011;63132;52.268;5.192;2023-03-13T18:16:39;33.65;;;5.82;;
74626;SDS011;63132;52.268;5.192;2023-03-13T18:19:06;29.15;;;5.38;;
74626;SDS011;63132;52.268;5.192;2023-03-13T18:21:34;27.52;;;4.88;;
74626;SDS011;63132;52.268;5.192;2023-03-13T18:24:00;31.90;;;5.05;;
74626;SDS011;63132;52.268;5.192;2023-03-13T18:28:56;32.72;;;6.57;;
74626;SDS011;63132;52.268;5.192;2023-03-13T18:31:27;36.10;;;5.53;;
74626;SDS011;63132;52.268;5.192;2023-03-13T18:33:57;30.38;;;6.07;;
74626;SDS011;63132;52.268;5.192;2023-03-13T18:36:23;40.70;;;6.20;;
74626;SDS011;63132;52.268;5.192;2023-03-13T18:38:49;27.42;;;4.72;;
74626;SDS011;63132;52.268;5.192;2023-03-13T18:41:15;28.10;;;5.72;;
74626;SDS011;63132;52.268;5.192;2023-03-13T18:46:12;27.98;;;4.45;;
74626;SDS011;63132;52.268;5.192;2023-03-13T18:48:45;30.90;;;4.97;;
74626;SDS011;63132;52.268;5.192;2023-03-13T18:51:17;37.83;;;6.13;;
74626;SDS011;63132;52.268;5.192;2023-03-13T18:53:44;28.65;;;5.10;;
74626;SDS011;63132;52.268;5.192;2023-03-13T18:56:23;39.03;;;5.60;;
74626;SDS011;63132;52.268;5.192;2023-03-13T18:58:52;29.25;;;4.82;;
74626;SDS011;63132;52.268;5.192;2023-03-13T19:01:19;33.78;;;5.57;;
74626;SDS011;63132;52.268;5.192;2023-03-13T19:03:49;36.22;;;5.72;;